Impacts TAF Board
For situational awareness. Not to be used for flight planning purposes.
IDs:

KDFW - Dallas-Ft Worth Intl, TX, US

Issued at 2337 UTC 11 Dec 2018
Updated at 0241 UTC 12 Dec 2018
Potential Impact None Slight Moderate High
Time0153Z 12/03Z 12/04Z 12/05Z 12/06Z 12/07Z 12/08Z 12/09Z 12/10Z 12/11Z 12/12Z 12/13Z 12/14Z 12/15Z>>
Type OBS PRVL PRVL PRVL PRVL PRVL PRVL PRVL PRVL PRVL PRVL
  [TEMP]  
PRVL
  [TEMP]  
PRVL
  [TEMP]  
PRVL
  [TEMP]  
VIS 10 >6 >6 >6 >6 >6 >6 >6 >6 >6 >6 >6 >6 >6
CIG 300 200 200 200 200 200 200 200 200 200 200
  [15]  
200
  [15]  
200
  [15]  
200
  [15]  
Cover OVC OVC OVC OVC OVC OVC OVC OVC OVC OVC OVC
  [BKN]  
OVC
  [BKN]  
OVC
  [BKN]  
OVC
  [BKN]  
FltCat VFR VFR VFR VFR VFR VFR VFR VFR VFR VFR VFR
  [MVFR]  
VFR
  [MVFR]  
VFR
  [MVFR]  
VFR
  [MVFR]  
WX -- -- -- -- -- -- -- -- -- -- --
  [--]  
--
  [--]  
--
  [--]  
--
  [--]  
WDir 180 180 180 180 180 180 180 180 180 180 180
[180]
180
[180]
180
[180]
180
[180]
WSpd 12 15 15 15 15 15 15 15 15 15 15
  [15]  
15
  [15]  
15
  [15]  
15
  [15]  
WGst -- -- -- -- -- -- -- -- -- -- --
  [--]  
--
  [--]  
--
  [--]  
--
  [--]  
Raw TAF
KDFW 112337Z 1200/1306 18015KT P6SM OVC200
  TEMPO 1212/1216 BKN015
  FM122000 18015KT P6SM BKN025
  FM130100 18014KT P6SM VCSH BKN025 OVC100


Raw METAR
KDFW 120153Z 18012KT 10SM SCT250 OVC300 11/02 A3011 RMK AO2 SLP197 T01110022
KDFW 120053Z 18014KT 10SM SCT200 OVC300 12/02 A3011 RMK AO2 SLP197 T01170017
KDFW 112353Z 18014KT 10SM BKN200 OVC250 12/02 A3012 RMK AO2 SLP199 T01220022 10156 20122 56013

METAR Board
Radar Display
Forecast Discussion
For situational awareness. Not to be used for flight planning purposes.